sensor_id;sensor_type;location;lat;lon;timestamp;temperature;humidity
16032;DHT22;8120;48.308;8.914;2022-12-07T00:01:07;1.20;97.00
16032;DHT22;8120;48.308;8.914;2022-12-07T00:03:36;1.20;96.80
16032;DHT22;8120;48.308;8.914;2022-12-07T00:06:06;1.10;96.80
16032;DHT22;8120;48.308;8.914;2022-12-07T00:08:35;1.10;97.30
16032;DHT22;8120;48.308;8.914;2022-12-07T00:11:03;1.10;97.60
16032;DHT22;8120;48.308;8.914;2022-12-07T00:13:34;1.10;97.60
16032;DHT22;8120;48.308;8.914;2022-12-07T00:16:03;1.10;98.00
16032;DHT22;8120;48.308;8.914;2022-12-07T00:18:31;1.10;98.10
16032;DHT22;8120;48.308;8.914;2022-12-07T00:21:00;1.10;98.00
16032;DHT22;8120;48.308;8.914;2022-12-07T00:23:28;1.10;98.20
16032;DHT22;8120;48.308;8.914;2022-12-07T00:26:02;1.00;98.70
16032;DHT22;8120;48.308;8.914;2022-12-07T00:28:30;1.00;99.80
16032;DHT22;8120;48.308;8.914;2022-12-07T00:31:02;1.00;99.90
16032;DHT22;8120;48.308;8.914;2022-12-07T00:33:31;1.00;99.90
16032;DHT22;8120;48.308;8.914;2022-12-07T00:35:59;1.00;99.90
16032;DHT22;8120;48.308;8.914;2022-12-07T00:38:28;1.00;99.90
16032;DHT22;8120;48.308;8.914;2022-12-07T00:40:57;1.00;99.90
16032;DHT22;8120;48.308;8.914;2022-12-07T00:43:25;1.00;99.90
16032;DHT22;8120;48.308;8.914;2022-12-07T00:45:54;1.00;99.90
16032;DHT22;8120;48.308;8.914;2022-12-07T00:48:24;1.10;99.90
16032;DHT22;8120;48.308;8.914;2022-12-07T00:50:52;1.10;99.90
16032;DHT22;8120;48.308;8.914;2022-12-07T00:53:20;1.00;99.90
16032;DHT22;8120;48.308;8.914;2022-12-07T00:55:48;1.10;99.90
16032;DHT22;8120;48.308;8.914;2022-12-07T00:58:16;1.10;99.90
16032;DHT22;8120;48.308;8.914;2022-12-07T01:00:44;1.10;99.90
16032;DHT22;8120;48.308;8.914;2022-12-07T01:03:13;1.10;99.90
16032;DHT22;8120;48.308;8.914;2022-12-07T01:05:50;1.10;99.90
16032;DHT22;8120;48.308;8.914;2022-12-07T01:08:18;1.20;99.70
16032;DHT22;8120;48.308;8.914;2022-12-07T01:10:47;1.10;99.30
16032;DHT22;8120;48.308;8.914;2022-12-07T01:13:15;1.10;99.20
16032;DHT22;8120;48.308;8.914;2022-12-07T01:15:44;1.10;99.60
16032;DHT22;8120;48.308;8.914;2022-12-07T01:18:12;1.10;99.90
16032;DHT22;8120;48.308;8.914;2022-12-07T01:20:40;1.10;99.90
16032;DHT22;8120;48.308;8.914;2022-12-07T01:23:09;1.10;99.90
16032;DHT22;8120;48.308;8.914;2022-12-07T01:25:37;1.10;99.90
16032;DHT22;8120;48.308;8.914;2022-12-07T01:28:05;1.10;99.90
16032;DHT22;8120;48.308;8.914;2022-12-07T01:30:33;1.10;99.90
16032;DHT22;8120;48.308;8.914;2022-12-07T01:33:01;1.10;99.90
16032;DHT22;8120;48.308;8.914;2022-12-07T01:35:29;1.20;99.90
16032;DHT22;8120;48.308;8.914;2022-12-07T01:37:57;1.10;99.90
16032;DHT22;8120;48.308;8.914;2022-12-07T01:40:26;1.10;99.90
16032;DHT22;8120;48.308;8.914;2022-12-07T01:42:54;1.10;99.90
16032;DHT22;8120;48.308;8.914;2022-12-07T01:45:43;1.10;99.90
16032;DHT22;8120;48.308;8.914;2022-12-07T01:48:14;1.10;99.90
16032;DHT22;8120;48.308;8.914;2022-12-07T01:50:44;1.10;99.90
16032;DHT22;8120;48.308;8.914;2022-12-07T01:53:13;1.10;99.90
16032;DHT22;8120;48.308;8.914;2022-12-07T01:55:45;1.10;99.90
16032;DHT22;8120;48.308;8.914;2022-12-07T01:58:15;1.10;99.90
16032;DHT22;8120;48.308;8.914;2022-12-07T02:00:43;1.10;99.90
16032;DHT22;8120;48.308;8.914;2022-12-07T02:03:15;1.10;99.90
16032;DHT22;8120;48.308;8.914;2022-12-07T02:05:46;1.10;99.90
16032;DHT22;8120;48.308;8.914;2022-12-07T02:08:15;1.10;99.90
16032;DHT22;8120;48.308;8.914;2022-12-07T02:10:46;1.10;99.90
16032;DHT22;8120;48.308;8.914;2022-12-07T02:13:16;1.00;99.90
16032;DHT22;8120;48.308;8.914;2022-12-07T02:15:59;1.00;99.90
16032;DHT22;8120;48.308;8.914;2022-12-07T02:18:41;1.00;99.90
16032;DHT22;8120;48.308;8.914;2022-12-07T02:21:13;1.10;99.90
16032;DHT22;8120;48.308;8.914;2022-12-07T02:24:03;1.10;99.90
16032;DHT22;8120;48.308;8.914;2022-12-07T02:27:01;1.10;99.90
16032;DHT22;8120;48.308;8.914;2022-12-07T02:29:36;1.10;99.90
16032;DHT22;8120;48.308;8.914;2022-12-07T02:32:10;1.10;99.90
16032;DHT22;8120;48.308;8.914;2022-12-07T02:34:46;1.10;99.90
16032;DHT22;8120;48.308;8.914;2022-12-07T02:37:32;1.10;99.90
16032;DHT22;8120;48.308;8.914;2022-12-07T02:40:07;1.10;99.90
16032;DHT22;8120;48.308;8.914;2022-12-07T02:42:40;1.10;99.90
16032;DHT22;8120;48.308;8.914;2022-12-07T02:45:13;1.10;99.60
16032;DHT22;8120;48.308;8.914;2022-12-07T02:47:43;1.10;99.40
16032;DHT22;8120;48.308;8.914;2022-12-07T02:50:12;1.10;98.90
16032;DHT22;8120;48.308;8.914;2022-12-07T02:52:40;1.10;99.20
16032;DHT22;8120;48.308;8.914;2022-12-07T02:55:08;1.10;99.90
16032;DHT22;8120;48.308;8.914;2022-12-07T02:57:49;1.00;99.90
16032;DHT22;8120;48.308;8.914;2022-12-07T03:00:22;1.00;99.90
16032;DHT22;8120;48.308;8.914;2022-12-07T03:02:53;1.00;99.90
16032;DHT22;8120;48.308;8.914;2022-12-07T03:08:32;1.00;99.90
16032;DHT22;8120;48.308;8.914;2022-12-07T03:11:05;1.00;99.90
16032;DHT22;8120;48.308;8.914;2022-12-07T03:13:37;1.00;99.90
16032;DHT22;8120;48.308;8.914;2022-12-07T03:16:14;1.00;99.90
16032;DHT22;8120;48.308;8.914;2022-12-07T03:18:47;1.00;99.90
16032;DHT22;8120;48.308;8.914;2022-12-07T03:21:18;1.00;99.90
16032;DHT22;8120;48.308;8.914;2022-12-07T03:23:51;1.00;99.90
16032;DHT22;8120;48.308;8.914;2022-12-07T03:26:23;1.00;99.90
16032;DHT22;8120;48.308;8.914;2022-12-07T03:28:56;0.90;99.90
16032;DHT22;8120;48.308;8.914;2022-12-07T03:31:29;1.00;99.90
16032;DHT22;8120;48.308;8.914;2022-12-07T03:34:03;0.90;99.90
16032;DHT22;8120;48.308;8.914;2022-12-07T03:36:40;0.90;99.90
16032;DHT22;8120;48.308;8.914;2022-12-07T03:39:25;0.90;99.90
16032;DHT22;8120;48.308;8.914;2022-12-07T03:41:55;0.90;99.90
16032;DHT22;8120;48.308;8.914;2022-12-07T03:44:23;0.80;99.90
16032;DHT22;8120;48.308;8.914;2022-12-07T03:47:01;0.90;99.90
16032;DHT22;8120;48.308;8.914;2022-12-07T03:49:32;0.90;99.90
16032;DHT22;8120;48.308;8.914;2022-12-07T03:52:08;0.90;99.90
16032;DHT22;8120;48.308;8.914;2022-12-07T03:54:44;0.80;99.90
16032;DHT22;8120;48.308;8.914;2022-12-07T03:57:14;0.90;99.90
16032;DHT22;8120;48.308;8.914;2022-12-07T03:59:42;0.90;99.90
16032;DHT22;8120;48.308;8.914;2022-12-07T04:02:13;0.90;99.90
16032;DHT22;8120;48.308;8.914;2022-12-07T04:04:42;0.90;99.90
16032;DHT22;8120;48.308;8.914;2022-12-07T04:07:10;0.90;99.90
16032;DHT22;8120;48.308;8.914;2022-12-07T04:09:39;0.80;99.90
16032;DHT22;8120;48.308;8.914;2022-12-07T04:12:07;0.80;99.90
16032;DHT22;8120;48.308;8.914;2022-12-07T04:14:35;0.70;99.90
16032;DHT22;8120;48.308;8.914;2022-12-07T04:17:03;0.60;99.90
16032;DHT22;8120;48.308;8.914;2022-12-07T04:19:33;0.60;99.90
16032;DHT22;8120;48.308;8.914;2022-12-07T04:22:03;0.60;99.90
16032;DHT22;8120;48.308;8.914;2022-12-07T04:24:32;0.60;99.90
16032;DHT22;8120;48.308;8.914;2022-12-07T04:27:00;0.60;99.90
16032;DHT22;8120;48.308;8.914;2022-12-07T04:29:28;0.60;99.90
16032;DHT22;8120;48.308;8.914;2022-12-07T04:31:56;0.60;99.90
16032;DHT22;8120;48.308;8.914;2022-12-07T04:34:24;0.60;99.90
16032;DHT22;8120;48.308;8.914;2022-12-07T04:36:53;0.60;99.90
16032;DHT22;8120;48.308;8.914;2022-12-07T04:39:23;0.60;99.90
16032;DHT22;8120;48.308;8.914;2022-12-07T04:41:51;0.70;99.90
16032;DHT22;8120;48.308;8.914;2022-12-07T04:44:20;0.70;99.90
16032;DHT22;8120;48.308;8.914;2022-12-07T04:46:48;0.70;99.90
16032;DHT22;8120;48.308;8.914;2022-12-07T04:49:17;0.60;99.90
16032;DHT22;8120;48.308;8.914;2022-12-07T04:51:46;0.70;99.90
16032;DHT22;8120;48.308;8.914;2022-12-07T04:54:16;0.60;99.90
16032;DHT22;8120;48.308;8.914;2022-12-07T04:56:44;0.60;99.90
16032;DHT22;8120;48.308;8.914;2022-12-07T04:59:12;0.60;99.90
16032;DHT22;8120;48.308;8.914;2022-12-07T05:01:41;0.60;99.90
16032;DHT22;8120;48.308;8.914;2022-12-07T05:04:09;0.60;99.90
16032;DHT22;8120;48.308;8.914;2022-12-07T05:06:37;0.60;99.90
16032;DHT22;8120;48.308;8.914;2022-12-07T05:09:05;0.60;99.90
16032;DHT22;8120;48.308;8.914;2022-12-07T05:11:34;0.60;99.90
16032;DHT22;8120;48.308;8.914;2022-12-07T05:14:12;0.50;99.90
16032;DHT22;8120;48.308;8.914;2022-12-07T05:16:41;0.50;99.90
16032;DHT22;8120;48.308;8.914;2022-12-07T05:19:09;0.50;99.90
16032;DHT22;8120;48.308;8.914;2022-12-07T05:21:38;0.50;99.90
16032;DHT22;8120;48.308;8.914;2022-12-07T05:24:08;0.50;99.90
16032;DHT22;8120;48.308;8.914;2022-12-07T05:26:37;0.50;99.90
16032;DHT22;8120;48.308;8.914;2022-12-07T05:29:05;0.50;99.90
16032;DHT22;8120;48.308;8.914;2022-12-07T05:31:33;0.50;99.90
16032;DHT22;8120;48.308;8.914;2022-12-07T05:34:01;0.50;99.90
16032;DHT22;8120;48.308;8.914;2022-12-07T05:36:29;0.40;99.90
16032;DHT22;8120;48.308;8.914;2022-12-07T05:38:58;0.40;99.90
16032;DHT22;8120;48.308;8.914;2022-12-07T05:41:26;0.40;99.90
16032;DHT22;8120;48.308;8.914;2022-12-07T05:44:13;0.30;99.90
16032;DHT22;8120;48.308;8.914;2022-12-07T05:46:41;0.20;99.90
16032;DHT22;8120;48.308;8.914;2022-12-07T05:49:09;0.20;99.90
16032;DHT22;8120;48.308;8.914;2022-12-07T05:51:37;0.10;99.90
16032;DHT22;8120;48.308;8.914;2022-12-07T05:54:05;0.00;99.90
16032;DHT22;8120;48.308;8.914;2022-12-07T05:56:33;0.00;99.90
16032;DHT22;8120;48.308;8.914;2022-12-07T05:59:01;-0.10;99.90
16032;DHT22;8120;48.308;8.914;2022-12-07T06:01:48;-0.20;99.90
16032;DHT22;8120;48.308;8.914;2022-12-07T06:04:16;-0.20;99.90
16032;DHT22;8120;48.308;8.914;2022-12-07T06:06:44;-0.30;99.90
16032;DHT22;8120;48.308;8.914;2022-12-07T06:09:13;-0.40;99.90
16032;DHT22;8120;48.308;8.914;2022-12-07T06:11:41;-0.40;99.90
16032;DHT22;8120;48.308;8.914;2022-12-07T06:14:26;-0.50;99.90
16032;DHT22;8120;48.308;8.914;2022-12-07T06:20:42;-0.70;99.90
16032;DHT22;8120;48.308;8.914;2022-12-07T06:23:10;-0.70;99.90
16032;DHT22;8120;48.308;8.914;2022-12-07T06:25:38;-0.80;99.90
16032;DHT22;8120;48.308;8.914;2022-12-07T06:28:06;-0.90;99.90
16032;DHT22;8120;48.308;8.914;2022-12-07T06:30:33;-1.00;99.90
16032;DHT22;8120;48.308;8.914;2022-12-07T06:33:01;-1.00;99.90
16032;DHT22;8120;48.308;8.914;2022-12-07T06:35:29;-1.10;99.90
16032;DHT22;8120;48.308;8.914;2022-12-07T06:37:58;-1.10;99.90
16032;DHT22;8120;48.308;8.914;2022-12-07T06:40:26;-1.20;99.90
16032;DHT22;8120;48.308;8.914;2022-12-07T06:42:54;-1.20;99.90
16032;DHT22;8120;48.308;8.914;2022-12-07T06:45:22;-1.30;99.90
16032;DHT22;8120;48.308;8.914;2022-12-07T06:47:49;-1.30;99.90
16032;DHT22;8120;48.308;8.914;2022-12-07T06:50:17;-1.40;99.90
16032;DHT22;8120;48.308;8.914;2022-12-07T06:52:45;-1.40;99.90
16032;DHT22;8120;48.308;8.914;2022-12-07T06:55:14;-1.50;99.90
16032;DHT22;8120;48.308;8.914;2022-12-07T06:57:42;-1.50;99.90
16032;DHT22;8120;48.308;8.914;2022-12-07T07:00:11;-1.60;99.90
16032;DHT22;8120;48.308;8.914;2022-12-07T07:02:47;-1.60;99.90
16032;DHT22;8120;48.308;8.914;2022-12-07T07:05:15;-1.70;99.90
16032;DHT22;8120;48.308;8.914;2022-12-07T07:07:43;-1.70;99.90
16032;DHT22;8120;48.308;8.914;2022-12-07T07:10:32;-1.70;99.90
16032;DHT22;8120;48.308;8.914;2022-12-07T07:13:00;-1.70;99.90
16032;DHT22;8120;48.308;8.914;2022-12-07T07:15:28;-1.80;99.90
16032;DHT22;8120;48.308;8.914;2022-12-07T07:17:56;-1.70;99.90
16032;DHT22;8120;48.308;8.914;2022-12-07T07:20:30;-1.70;99.90
16032;DHT22;8120;48.308;8.914;2022-12-07T07:22:57;-1.70;99.90
16032;DHT22;8120;48.308;8.914;2022-12-07T07:25:25;-1.70;99.90
16032;DHT22;8120;48.308;8.914;2022-12-07T07:27:54;-1.70;99.90
16032;DHT22;8120;48.308;8.914;2022-12-07T07:30:22;-1.60;99.90
16032;DHT22;8120;48.308;8.914;2022-12-07T07:32:50;-1.50;99.90
16032;DHT22;8120;48.308;8.914;2022-12-07T07:35:18;-1.40;99.90
16032;DHT22;8120;48.308;8.914;2022-12-07T07:37:46;-1.20;99.90
16032;DHT22;8120;48.308;8.914;2022-12-07T07:40:14;-1.20;99.90
16032;DHT22;8120;48.308;8.914;2022-12-07T07:42:41;-1.00;99.90
16032;DHT22;8120;48.308;8.914;2022-12-07T07:45:11;-0.90;99.90
16032;DHT22;8120;48.308;8.914;2022-12-07T07:47:39;-0.80;99.90
16032;DHT22;8120;48.308;8.914;2022-12-07T07:50:07;-0.80;99.90
16032;DHT22;8120;48.308;8.914;2022-12-07T07:52:35;-0.80;99.90
16032;DHT22;8120;48.308;8.914;2022-12-07T07:55:04;-0.70;99.90
16032;DHT22;8120;48.308;8.914;2022-12-07T07:57:32;-0.50;99.90
16032;DHT22;8120;48.308;8.914;2022-12-07T07:59:59;-0.40;99.90
16032;DHT22;8120;48.308;8.914;2022-12-07T08:02:29;-0.40;99.90
16032;DHT22;8120;48.308;8.914;2022-12-07T08:04:57;-0.40;99.90
16032;DHT22;8120;48.308;8.914;2022-12-07T08:07:26;-0.40;99.90
16032;DHT22;8120;48.308;8.914;2022-12-07T08:09:54;-0.40;99.90
16032;DHT22;8120;48.308;8.914;2022-12-07T08:12:22;-0.40;99.90
16032;DHT22;8120;48.308;8.914;2022-12-07T08:14:49;-0.30;99.90
16032;DHT22;8120;48.308;8.914;2022-12-07T08:17:18;-0.10;99.90
16032;DHT22;8120;48.308;8.914;2022-12-07T08:19:47;0.00;99.90
16032;DHT22;8120;48.308;8.914;2022-12-07T08:22:14;0.10;99.90
16032;DHT22;8120;48.308;8.914;2022-12-07T08:24:42;0.10;99.90
16032;DHT22;8120;48.308;8.914;2022-12-07T08:27:10;0.10;99.90
16032;DHT22;8120;48.308;8.914;2022-12-07T08:29:38;0.00;99.90
16032;DHT22;8120;48.308;8.914;2022-12-07T08:32:06;0.00;99.90
16032;DHT22;8120;48.308;8.914;2022-12-07T08:34:35;0.00;99.90
16032;DHT22;8120;48.308;8.914;2022-12-07T08:37:04;0.10;99.90
16032;DHT22;8120;48.308;8.914;2022-12-07T08:39:32;0.20;99.90
16032;DHT22;8120;48.308;8.914;2022-12-07T08:42:00;0.20;99.90
16032;DHT22;8120;48.308;8.914;2022-12-07T08:44:28;0.20;99.90
16032;DHT22;8120;48.308;8.914;2022-12-07T08:46:58;0.20;99.90
16032;DHT22;8120;48.308;8.914;2022-12-07T08:49:28;0.20;99.90
16032;DHT22;8120;48.308;8.914;2022-12-07T08:51:59;0.30;99.90
16032;DHT22;8120;48.308;8.914;2022-12-07T08:54:28;0.40;99.90
16032;DHT22;8120;48.308;8.914;2022-12-07T08:56:56;0.40;99.90
16032;DHT22;8120;48.308;8.914;2022-12-07T08:59:26;0.50;99.90
16032;DHT22;8120;48.308;8.914;2022-12-07T09:01:55;0.50;99.40
16032;DHT22;8120;48.308;8.914;2022-12-07T09:04:23;0.50;98.60
16032;DHT22;8120;48.308;8.914;2022-12-07T09:06:51;0.60;98.30
16032;DHT22;8120;48.308;8.914;2022-12-07T09:09:18;0.80;96.90
16032;DHT22;8120;48.308;8.914;2022-12-07T09:11:48;0.80;96.00
16032;DHT22;8120;48.308;8.914;2022-12-07T09:14:15;0.90;96.50
16032;DHT22;8120;48.308;8.914;2022-12-07T09:16:43;1.10;96.10
16032;DHT22;8120;48.308;8.914;2022-12-07T09:19:11;1.10;93.10
16032;DHT22;8120;48.308;8.914;2022-12-07T09:21:39;1.10;92.50
16032;DHT22;8120;48.308;8.914;2022-12-07T09:24:07;1.00;91.20
16032;DHT22;8120;48.308;8.914;2022-12-07T09:26:35;1.10;91.80
16032;DHT22;8120;48.308;8.914;2022-12-07T09:29:07;1.30;91.30
16032;DHT22;8120;48.308;8.914;2022-12-07T09:31:36;1.30;89.20
16032;DHT22;8120;48.308;8.914;2022-12-07T09:34:05;1.40;88.00
16032;DHT22;8120;48.308;8.914;2022-12-07T09:36:34;1.50;88.20
16032;DHT22;8120;48.308;8.914;2022-12-07T09:39:01;1.70;86.60
16032;DHT22;8120;48.308;8.914;2022-12-07T09:41:31;1.90;84.40
16032;DHT22;8120;48.308;8.914;2022-12-07T09:44:04;1.80;84.20
16032;DHT22;8120;48.308;8.914;2022-12-07T09:46:36;1.80;81.40
16032;DHT22;8120;48.308;8.914;2022-12-07T09:49:11;1.80;80.20
16032;DHT22;8120;48.308;8.914;2022-12-07T09:51:39;2.00;81.00
16032;DHT22;8120;48.308;8.914;2022-12-07T09:54:09;2.10;80.80
16032;DHT22;8120;48.308;8.914;2022-12-07T09:56:39;2.20;78.70
16032;DHT22;8120;48.308;8.914;2022-12-07T09:59:13;2.40;77.30
16032;DHT22;8120;48.308;8.914;2022-12-07T10:01:46;2.80;75.70
16032;DHT22;8120;48.308;8.914;2022-12-07T10:04:17;2.80;75.00
16032;DHT22;8120;48.308;8.914;2022-12-07T10:06:46;2.70;75.40
16032;DHT22;8120;48.308;8.914;2022-12-07T10:09:16;2.60;75.60
16032;DHT22;8120;48.308;8.914;2022-12-07T10:12:05;2.90;75.10
16032;DHT22;8120;48.308;8.914;2022-12-07T10:14:35;3.30;72.50
16032;DHT22;8120;48.308;8.914;2022-12-07T10:17:34;3.50;70.10
16032;DHT22;8120;48.308;8.914;2022-12-07T10:20:14;3.80;70.30
16032;DHT22;8120;48.308;8.914;2022-12-07T10:22:58;4.20;68.80
16032;DHT22;8120;48.308;8.914;2022-12-07T10:25:29;4.10;68.70
16032;DHT22;8120;48.308;8.914;2022-12-07T10:28:09;4.20;67.20
16032;DHT22;8120;48.308;8.914;2022-12-07T10:30:51;4.10;64.90
16032;DHT22;8120;48.308;8.914;2022-12-07T10:33:32;4.10;65.30
16032;DHT22;8120;48.308;8.914;2022-12-07T10:36:16;4.10;68.40
16032;DHT22;8120;48.308;8.914;2022-12-07T10:38:45;4.30;68.50
16032;DHT22;8120;48.308;8.914;2022-12-07T10:41:13;3.90;69.60
16032;DHT22;8120;48.308;8.914;2022-12-07T10:43:50;3.90;69.10
16032;DHT22;8120;48.308;8.914;2022-12-07T10:46:43;3.60;71.00
16032;DHT22;8120;48.308;8.914;2022-12-07T10:49:31;3.60;68.70
16032;DHT22;8120;48.308;8.914;2022-12-07T10:52:11;3.70;68.30
16032;DHT22;8120;48.308;8.914;2022-12-07T10:54:48;4.10;68.60
16032;DHT22;8120;48.308;8.914;2022-12-07T10:57:36;4.30;65.90
16032;DHT22;8120;48.308;8.914;2022-12-07T11:00:13;4.20;65.40
16032;DHT22;8120;48.308;8.914;2022-12-07T11:02:55;4.30;65.40
16032;DHT22;8120;48.308;8.914;2022-12-07T11:05:31;4.40;66.00
16032;DHT22;8120;48.308;8.914;2022-12-07T11:08:12;4.60;65.80
16032;DHT22;8120;48.308;8.914;2022-12-07T11:10:47;4.50;62.80
16032;DHT22;8120;48.308;8.914;2022-12-07T11:13:28;4.40;60.20
16032;DHT22;8120;48.308;8.914;2022-12-07T11:16:26;4.40;60.30
16032;DHT22;8120;48.308;8.914;2022-12-07T11:19:11;4.50;60.40
16032;DHT22;8120;48.308;8.914;2022-12-07T11:21:48;4.70;61.30
16032;DHT22;8120;48.308;8.914;2022-12-07T11:24:27;4.70;61.60
16032;DHT22;8120;48.308;8.914;2022-12-07T11:27:07;4.70;62.50
16032;DHT22;8120;48.308;8.914;2022-12-07T11:29:58;4.70;62.60
16032;DHT22;8120;48.308;8.914;2022-12-07T11:32:44;4.80;62.60
16032;DHT22;8120;48.308;8.914;2022-12-07T11:35:22;5.00;61.80
16032;DHT22;8120;48.308;8.914;2022-12-07T11:37:58;4.80;62.50
16032;DHT22;8120;48.308;8.914;2022-12-07T11:40:29;4.60;61.10
16032;DHT22;8120;48.308;8.914;2022-12-07T11:43:04;4.50;61.60
16032;DHT22;8120;48.308;8.914;2022-12-07T11:45:34;5.00;62.60
16032;DHT22;8120;48.308;8.914;2022-12-07T11:48:04;5.10;61.40
16032;DHT22;8120;48.308;8.914;2022-12-07T11:50:38;4.70;60.30
16032;DHT22;8120;48.308;8.914;2022-12-07T11:53:16;5.00;61.10
16032;DHT22;8120;48.308;8.914;2022-12-07T11:55:51;5.10;58.80
16032;DHT22;8120;48.308;8.914;2022-12-07T11:58:37;5.20;59.40
16032;DHT22;8120;48.308;8.914;2022-12-07T12:01:22;5.40;61.90
16032;DHT22;8120;48.308;8.914;2022-12-07T12:03:55;5.40;61.90
16032;DHT22;8120;48.308;8.914;2022-12-07T12:06:24;5.00;61.10
16032;DHT22;8120;48.308;8.914;2022-12-07T12:08:56;5.10;61.00
16032;DHT22;8120;48.308;8.914;2022-12-07T12:12:01;5.10;60.70
16032;DHT22;8120;48.308;8.914;2022-12-07T12:15:02;5.00;61.60
16032;DHT22;8120;48.308;8.914;2022-12-07T12:17:52;4.80;60.90
16032;DHT22;8120;48.308;8.914;2022-12-07T12:20:25;4.90;60.00
16032;DHT22;8120;48.308;8.914;2022-12-07T12:22:59;4.70;61.30
16032;DHT22;8120;48.308;8.914;2022-12-07T12:25:31;4.90;64.30
16032;DHT22;8120;48.308;8.914;2022-12-07T12:28:04;4.50;65.40
16032;DHT22;8120;48.308;8.914;2022-12-07T12:30:34;4.30;67.30
16032;DHT22;8120;48.308;8.914;2022-12-07T12:33:05;4.10;66.90
16032;DHT22;8120;48.308;8.914;2022-12-07T12:35:34;4.20;66.00
16032;DHT22;8120;48.308;8.914;2022-12-07T12:38:27;4.10;66.70
16032;DHT22;8120;48.308;8.914;2022-12-07T12:40:57;4.10;68.60
16032;DHT22;8120;48.308;8.914;2022-12-07T12:43:45;3.80;70.00
16032;DHT22;8120;48.308;8.914;2022-12-07T12:46:49;3.80;70.20
16032;DHT22;8120;48.308;8.914;2022-12-07T12:49:39;3.80;70.30
16032;DHT22;8120;48.308;8.914;2022-12-07T12:58:35;3.70;69.90
16032;DHT22;8120;48.308;8.914;2022-12-07T13:04:34;3.60;65.40
16032;DHT22;8120;48.308;8.914;2022-12-07T13:07:04;3.80;63.50
16032;DHT22;8120;48.308;8.914;2022-12-07T13:09:34;3.80;62.00
16032;DHT22;8120;48.308;8.914;2022-12-07T13:12:04;3.80;64.00
16032;DHT22;8120;48.308;8.914;2022-12-07T13:14:55;3.90;66.30
16032;DHT22;8120;48.308;8.914;2022-12-07T13:17:59;3.90;65.40
16032;DHT22;8120;48.308;8.914;2022-12-07T13:20:45;3.90;65.70
16032;DHT22;8120;48.308;8.914;2022-12-07T13:23:18;4.10;66.00
16032;DHT22;8120;48.308;8.914;2022-12-07T13:25:53;4.00;65.00
16032;DHT22;8120;48.308;8.914;2022-12-07T13:28:22;4.10;64.90
16032;DHT22;8120;48.308;8.914;2022-12-07T13:31:08;4.00;65.10
16032;DHT22;8120;48.308;8.914;2022-12-07T13:33:37;3.90;66.00
16032;DHT22;8120;48.308;8.914;2022-12-07T13:36:14;3.80;68.30
16032;DHT22;8120;48.308;8.914;2022-12-07T13:38:52;3.70;69.40
16032;DHT22;8120;48.308;8.914;2022-12-07T13:41:22;3.60;70.70
16032;DHT22;8120;48.308;8.914;2022-12-07T13:44:01;3.50;70.80
16032;DHT22;8120;48.308;8.914;2022-12-07T13:46:41;3.60;72.60
16032;DHT22;8120;48.308;8.914;2022-12-07T13:49:17;3.50;73.60
16032;DHT22;8120;48.308;8.914;2022-12-07T13:51:45;3.30;73.90
16032;DHT22;8120;48.308;8.914;2022-12-07T13:54:14;3.40;74.60
16032;DHT22;8120;48.308;8.914;2022-12-07T13:56:42;3.40;73.70
16032;DHT22;8120;48.308;8.914;2022-12-07T13:59:14;3.40;74.30
16032;DHT22;8120;48.308;8.914;2022-12-07T14:01:46;3.50;74.80
16032;DHT22;8120;48.308;8.914;2022-12-07T14:04:39;3.60;75.10
16032;DHT22;8120;48.308;8.914;2022-12-07T14:07:20;3.70;75.40
16032;DHT22;8120;48.308;8.914;2022-12-07T14:09:56;3.70;73.60
16032;DHT22;8120;48.308;8.914;2022-12-07T14:12:25;3.50;75.00
16032;DHT22;8120;48.308;8.914;2022-12-07T14:14:54;3.40;77.10
16032;DHT22;8120;48.308;8.914;2022-12-07T14:17:25;3.30;76.70
16032;DHT22;8120;48.308;8.914;2022-12-07T14:19:55;3.20;77.50
16032;DHT22;8120;48.308;8.914;2022-12-07T14:22:26;3.10;78.10
16032;DHT22;8120;48.308;8.914;2022-12-07T14:24:59;3.00;78.30
16032;DHT22;8120;48.308;8.914;2022-12-07T14:27:31;3.00;79.10
16032;DHT22;8120;48.308;8.914;2022-12-07T14:30:01;2.80;80.00
16032;DHT22;8120;48.308;8.914;2022-12-07T14:32:32;2.90;79.80
16032;DHT22;8120;48.308;8.914;2022-12-07T14:35:08;2.80;80.20
16032;DHT22;8120;48.308;8.914;2022-12-07T14:37:37;2.80;80.40
16032;DHT22;8120;48.308;8.914;2022-12-07T14:40:07;2.80;80.30
16032;DHT22;8120;48.308;8.914;2022-12-07T14:42:35;2.80;80.00
16032;DHT22;8120;48.308;8.914;2022-12-07T14:45:03;2.70;80.40
16032;DHT22;8120;48.308;8.914;2022-12-07T14:47:33;2.70;80.70
16032;DHT22;8120;48.308;8.914;2022-12-07T14:50:21;2.70;80.40
16032;DHT22;8120;48.308;8.914;2022-12-07T14:52:53;2.60;81.30
16032;DHT22;8120;48.308;8.914;2022-12-07T14:55:42;2.60;82.20
16032;DHT22;8120;48.308;8.914;2022-12-07T14:58:12;2.50;82.80
16032;DHT22;8120;48.308;8.914;2022-12-07T15:00:41;2.40;83.00
16032;DHT22;8120;48.308;8.914;2022-12-07T15:03:11;2.40;83.40
16032;DHT22;8120;48.308;8.914;2022-12-07T15:05:40;2.40;82.80
16032;DHT22;8120;48.308;8.914;2022-12-07T15:08:09;2.30;83.00
16032;DHT22;8120;48.308;8.914;2022-12-07T15:10:38;2.30;83.00
16032;DHT22;8120;48.308;8.914;2022-12-07T15:13:06;2.30;83.70
16032;DHT22;8120;48.308;8.914;2022-12-07T15:15:53;2.20;84.20
16032;DHT22;8120;48.308;8.914;2022-12-07T15:18:24;2.30;84.50
16032;DHT22;8120;48.308;8.914;2022-12-07T15:20:51;2.20;84.20
16032;DHT22;8120;48.308;8.914;2022-12-07T15:23:19;2.20;84.30
16032;DHT22;8120;48.308;8.914;2022-12-07T15:25:48;2.20;84.30
16032;DHT22;8120;48.308;8.914;2022-12-07T15:28:16;2.20;84.40
16032;DHT22;8120;48.308;8.914;2022-12-07T15:30:45;2.10;85.10
16032;DHT22;8120;48.308;8.914;2022-12-07T15:33:13;2.10;85.40
16032;DHT22;8120;48.308;8.914;2022-12-07T15:35:43;2.00;85.20
16032;DHT22;8120;48.308;8.914;2022-12-07T15:38:11;2.10;85.30
16032;DHT22;8120;48.308;8.914;2022-12-07T15:40:39;2.00;85.30
16032;DHT22;8120;48.308;8.914;2022-12-07T15:43:09;2.00;85.20
16032;DHT22;8120;48.308;8.914;2022-12-07T15:45:57;2.00;84.90
16032;DHT22;8120;48.308;8.914;2022-12-07T15:48:24;2.00;84.80
16032;DHT22;8120;48.308;8.914;2022-12-07T15:51:02;1.90;84.90
16032;DHT22;8120;48.308;8.914;2022-12-07T15:53:31;1.90;85.10
16032;DHT22;8120;48.308;8.914;2022-12-07T15:55:58;1.90;85.40
16032;DHT22;8120;48.308;8.914;2022-12-07T15:58:26;1.90;85.00
16032;DHT22;8120;48.308;8.914;2022-12-07T16:00:54;1.90;85.20
16032;DHT22;8120;48.308;8.914;2022-12-07T16:03:22;1.90;84.90
16032;DHT22;8120;48.308;8.914;2022-12-07T16:05:51;1.90;85.30
16032;DHT22;8120;48.308;8.914;2022-12-07T16:08:20;1.90;85.00
16032;DHT22;8120;48.308;8.914;2022-12-07T16:10:48;1.90;85.40
16032;DHT22;8120;48.308;8.914;2022-12-07T16:13:16;1.80;85.30
16032;DHT22;8120;48.308;8.914;2022-12-07T16:15:45;1.80;85.40
16032;DHT22;8120;48.308;8.914;2022-12-07T16:18:13;1.80;86.10
16032;DHT22;8120;48.308;8.914;2022-12-07T16:20:41;1.80;86.40
16032;DHT22;8120;48.308;8.914;2022-12-07T16:23:09;1.80;86.70
16032;DHT22;8120;48.308;8.914;2022-12-07T16:25:38;1.80;86.40
16032;DHT22;8120;48.308;8.914;2022-12-07T16:28:06;1.80;86.50
16032;DHT22;8120;48.308;8.914;2022-12-07T16:30:34;1.80;86.80
16032;DHT22;8120;48.308;8.914;2022-12-07T16:33:02;1.80;86.50
16032;DHT22;8120;48.308;8.914;2022-12-07T16:35:30;1.80;86.80
16032;DHT22;8120;48.308;8.914;2022-12-07T16:37:58;1.90;86.60
16032;DHT22;8120;48.308;8.914;2022-12-07T16:40:26;1.80;86.20
16032;DHT22;8120;48.308;8.914;2022-12-07T16:42:55;1.80;86.90
16032;DHT22;8120;48.308;8.914;2022-12-07T16:45:23;1.80;86.70
16032;DHT22;8120;48.308;8.914;2022-12-07T16:47:51;1.80;86.40